sensor_id;sensor_type;location;lat;lon;timestamp;P1;durP1;ratioP1;P2;durP2;ratioP2
32611;SDS011;19030;49.478;8.986;2023-08-08T00:00:20;8.88;;;4.68;;
32611;SDS011;19030;49.478;8.986;2023-08-08T00:02:21;7.75;;;4.53;;
32611;SDS011;19030;49.478;8.986;2023-08-08T00:04:21;10.98;;;4.65;;
32611;SDS011;19030;49.478;8.986;2023-08-08T00:06:22;11.80;;;5.82;;
32611;SDS011;19030;49.478;8.986;2023-08-08T00:08:23;15.85;;;4.95;;
32611;SDS011;19030;49.478;8.986;2023-08-08T00:10:23;9.88;;;4.50;;
32611;SDS011;19030;49.478;8.986;2023-08-08T00:12:24;7.15;;;4.20;;
32611;SDS011;19030;49.478;8.986;2023-08-08T00:14:24;10.85;;;4.43;;
32611;SDS011;19030;49.478;8.986;2023-08-08T00:16:25;7.20;;;3.90;;
32611;SDS011;19030;49.478;8.986;2023-08-08T00:18:25;8.20;;;4.65;;
32611;SDS011;19030;49.478;8.986;2023-08-08T00:20:26;9.60;;;3.97;;
32611;SDS011;19030;49.478;8.986;2023-08-08T00:22:27;11.75;;;4.60;;
32611;SDS011;19030;49.478;8.986;2023-08-08T00:24:27;11.05;;;4.88;;
32611;SDS011;19030;49.478;8.986;2023-08-08T00:26:28;10.70;;;5.03;;
32611;SDS011;19030;49.478;8.986;2023-08-08T00:28:28;9.00;;;5.22;;
32611;SDS011;19030;49.478;8.986;2023-08-08T00:30:29;7.47;;;4.88;;
32611;SDS011;19030;49.478;8.986;2023-08-08T00:32:29;8.77;;;5.55;;
32611;SDS011;19030;49.478;8.986;2023-08-08T00:34:30;8.15;;;5.07;;
32611;SDS011;19030;49.478;8.986;2023-08-08T00:36:31;7.60;;;5.00;;
32611;SDS011;19030;49.478;8.986;2023-08-08T00:38:31;8.38;;;5.38;;
32611;SDS011;19030;49.478;8.986;2023-08-08T00:40:32;9.00;;;4.53;;
32611;SDS011;19030;49.478;8.986;2023-08-08T00:42:33;7.63;;;4.90;;
32611;SDS011;19030;49.478;8.986;2023-08-08T00:44:33;8.70;;;4.93;;
32611;SDS011;19030;49.478;8.986;2023-08-08T00:46:34;7.90;;;5.00;;
32611;SDS011;19030;49.478;8.986;2023-08-08T00:48:34;7.22;;;4.70;;
32611;SDS011;19030;49.478;8.986;2023-08-08T00:50:41;9.10;;;7.95;;
32611;SDS011;19030;49.478;8.986;2023-08-08T00:52:43;8.60;;;7.57;;
32611;SDS011;19030;49.478;8.986;2023-08-08T00:54:44;13.43;;;6.53;;
32611;SDS011;19030;49.478;8.986;2023-08-08T00:56:45;10.57;;;4.93;;
32611;SDS011;19030;49.478;8.986;2023-08-08T00:58:46;11.35;;;8.07;;
32611;SDS011;19030;49.478;8.986;2023-08-08T01:00:46;8.05;;;5.85;;
32611;SDS011;19030;49.478;8.986;2023-08-08T01:02:47;10.70;;;9.65;;
32611;SDS011;19030;49.478;8.986;2023-08-08T01:04:48;9.65;;;8.65;;
32611;SDS011;19030;49.478;8.986;2023-08-08T01:06:51;9.10;;;8.05;;
32611;SDS011;19030;49.478;8.986;2023-08-08T01:08:59;8.48;;;7.57;;
32611;SDS011;19030;49.478;8.986;2023-08-08T01:11:05;9.82;;;7.40;;
32611;SDS011;19030;49.478;8.986;2023-08-08T01:13:07;9.13;;;7.45;;
32611;SDS011;19030;49.478;8.986;2023-08-08T01:15:12;10.73;;;6.82;;
32611;SDS011;19030;49.478;8.986;2023-08-08T01:17:13;6.95;;;5.20;;
32611;SDS011;19030;49.478;8.986;2023-08-08T01:19:20;10.27;;;4.93;;
32611;SDS011;19030;49.478;8.986;2023-08-08T01:21:27;7.95;;;4.40;;
32611;SDS011;19030;49.478;8.986;2023-08-08T01:25:52;9.43;;;4.25;;
32611;SDS011;19030;49.478;8.986;2023-08-08T01:27:53;6.60;;;4.05;;
32611;SDS011;19030;49.478;8.986;2023-08-08T01:29:53;7.32;;;4.00;;
32611;SDS011;19030;49.478;8.986;2023-08-08T01:31:54;8.27;;;4.10;;
32611;SDS011;19030;49.478;8.986;2023-08-08T01:33:55;8.02;;;4.20;;
32611;SDS011;19030;49.478;8.986;2023-08-08T01:35:58;11.18;;;4.28;;
32611;SDS011;19030;49.478;8.986;2023-08-08T01:38:14;7.68;;;4.55;;
32611;SDS011;19030;49.478;8.986;2023-08-08T01:40:23;8.45;;;4.93;;
32611;SDS011;19030;49.478;8.986;2023-08-08T01:42:26;8.45;;;4.20;;
32611;SDS011;19030;49.478;8.986;2023-08-08T01:44:28;6.57;;;4.47;;
32611;SDS011;19030;49.478;8.986;2023-08-08T01:46:30;6.65;;;4.50;;
32611;SDS011;19030;49.478;8.986;2023-08-08T01:48:31;8.25;;;4.50;;
32611;SDS011;19030;49.478;8.986;2023-08-08T01:50:31;5.57;;;3.80;;
32611;SDS011;19030;49.478;8.986;2023-08-08T01:52:32;9.05;;;4.43;;
32611;SDS011;19030;49.478;8.986;2023-08-08T01:54:32;9.40;;;4.10;;
32611;SDS011;19030;49.478;8.986;2023-08-08T01:56:33;9.73;;;4.20;;
32611;SDS011;19030;49.478;8.986;2023-08-08T01:58:34;7.63;;;4.03;;
32611;SDS011;19030;49.478;8.986;2023-08-08T02:00:35;8.48;;;4.03;;
32611;SDS011;19030;49.478;8.986;2023-08-08T02:02:36;6.70;;;4.13;;
32611;SDS011;19030;49.478;8.986;2023-08-08T02:04:37;6.38;;;3.90;;
32611;SDS011;19030;49.478;8.986;2023-08-08T02:06:37;6.30;;;4.10;;
32611;SDS011;19030;49.478;8.986;2023-08-08T02:08:38;10.45;;;4.00;;
32611;SDS011;19030;49.478;8.986;2023-08-08T02:10:39;8.00;;;3.95;;
32611;SDS011;19030;49.478;8.986;2023-08-08T02:12:39;5.78;;;3.70;;
32611;SDS011;19030;49.478;8.986;2023-08-08T02:14:40;16.02;;;4.03;;
32611;SDS011;19030;49.478;8.986;2023-08-08T02:16:40;7.88;;;3.80;;
32611;SDS011;19030;49.478;8.986;2023-08-08T02:18:42;6.80;;;3.78;;
32611;SDS011;19030;49.478;8.986;2023-08-08T02:20:42;5.55;;;3.45;;
32611;SDS011;19030;49.478;8.986;2023-08-08T02:22:43;5.53;;;3.38;;
32611;SDS011;19030;49.478;8.986;2023-08-08T02:24:44;6.85;;;3.60;;
32611;SDS011;19030;49.478;8.986;2023-08-08T02:26:44;5.40;;;3.33;;
32611;SDS011;19030;49.478;8.986;2023-08-08T02:28:45;5.57;;;3.58;;
32611;SDS011;19030;49.478;8.986;2023-08-08T02:30:45;6.78;;;3.83;;
32611;SDS011;19030;49.478;8.986;2023-08-08T02:32:46;6.00;;;3.75;;
32611;SDS011;19030;49.478;8.986;2023-08-08T02:34:46;7.88;;;3.42;;
32611;SDS011;19030;49.478;8.986;2023-08-08T02:36:47;6.22;;;3.60;;
32611;SDS011;19030;49.478;8.986;2023-08-08T02:38:48;6.95;;;3.47;;
32611;SDS011;19030;49.478;8.986;2023-08-08T02:40:49;8.48;;;3.67;;
32611;SDS011;19030;49.478;8.986;2023-08-08T02:42:51;5.85;;;3.60;;
32611;SDS011;19030;49.478;8.986;2023-08-08T02:44:51;4.88;;;3.40;;
32611;SDS011;19030;49.478;8.986;2023-08-08T02:46:52;5.68;;;3.40;;
32611;SDS011;19030;49.478;8.986;2023-08-08T02:48:52;9.68;;;3.58;;
32611;SDS011;19030;49.478;8.986;2023-08-08T02:50:53;7.00;;;3.80;;
32611;SDS011;19030;49.478;8.986;2023-08-08T02:52:56;6.57;;;3.35;;
32611;SDS011;19030;49.478;8.986;2023-08-08T02:55:00;8.02;;;3.47;;
32611;SDS011;19030;49.478;8.986;2023-08-08T02:57:02;8.18;;;3.78;;
32611;SDS011;19030;49.478;8.986;2023-08-08T02:59:03;11.40;;;3.63;;
32611;SDS011;19030;49.478;8.986;2023-08-08T03:01:05;6.63;;;3.22;;
32611;SDS011;19030;49.478;8.986;2023-08-08T03:03:05;6.25;;;3.70;;
32611;SDS011;19030;49.478;8.986;2023-08-08T03:05:07;5.75;;;3.63;;
32611;SDS011;19030;49.478;8.986;2023-08-08T03:07:08;6.28;;;3.65;;
32611;SDS011;19030;49.478;8.986;2023-08-08T03:09:10;5.78;;;3.22;;
32611;SDS011;19030;49.478;8.986;2023-08-08T03:11:12;7.00;;;3.70;;
32611;SDS011;19030;49.478;8.986;2023-08-08T03:13:13;4.97;;;3.40;;
32611;SDS011;19030;49.478;8.986;2023-08-08T03:15:15;6.53;;;3.40;;
32611;SDS011;19030;49.478;8.986;2023-08-08T03:17:16;6.85;;;3.75;;
32611;SDS011;19030;49.478;8.986;2023-08-08T03:19:17;8.15;;;3.80;;
32611;SDS011;19030;49.478;8.986;2023-08-08T03:21:18;5.25;;;3.58;;
32611;SDS011;19030;49.478;8.986;2023-08-08T03:23:19;5.75;;;3.83;;
32611;SDS011;19030;49.478;8.986;2023-08-08T03:25:20;5.20;;;3.38;;
32611;SDS011;19030;49.478;8.986;2023-08-08T03:27:20;5.07;;;3.30;;
32611;SDS011;19030;49.478;8.986;2023-08-08T03:29:25;10.65;;;3.47;;
32611;SDS011;19030;49.478;8.986;2023-08-08T03:31:25;6.35;;;3.58;;
32611;SDS011;19030;49.478;8.986;2023-08-08T03:33:27;5.15;;;3.30;;
32611;SDS011;19030;49.478;8.986;2023-08-08T03:35:28;7.10;;;3.45;;
32611;SDS011;19030;49.478;8.986;2023-08-08T03:37:29;5.85;;;3.83;;
32611;SDS011;19030;49.478;8.986;2023-08-08T03:39:29;6.97;;;3.53;;
32611;SDS011;19030;49.478;8.986;2023-08-08T03:41:30;7.25;;;3.67;;
32611;SDS011;19030;49.478;8.986;2023-08-08T03:43:30;6.20;;;3.60;;
32611;SDS011;19030;49.478;8.986;2023-08-08T03:45:31;7.32;;;3.42;;
32611;SDS011;19030;49.478;8.986;2023-08-08T03:47:32;6.20;;;3.30;;
32611;SDS011;19030;49.478;8.986;2023-08-08T03:49:32;10.07;;;3.53;;
32611;SDS011;19030;49.478;8.986;2023-08-08T03:51:34;6.20;;;3.70;;
32611;SDS011;19030;49.478;8.986;2023-08-08T03:53:35;5.70;;;3.70;;
32611;SDS011;19030;49.478;8.986;2023-08-08T03:55:35;6.88;;;3.60;;
32611;SDS011;19030;49.478;8.986;2023-08-08T03:57:38;7.07;;;3.85;;
32611;SDS011;19030;49.478;8.986;2023-08-08T03:59:38;5.85;;;3.60;;
32611;SDS011;19030;49.478;8.986;2023-08-08T04:01:39;7.68;;;3.90;;
32611;SDS011;19030;49.478;8.986;2023-08-08T04:03:39;6.40;;;3.90;;
32611;SDS011;19030;49.478;8.986;2023-08-08T04:05:40;7.43;;;4.07;;
32611;SDS011;19030;49.478;8.986;2023-08-08T04:07:43;6.10;;;3.75;;
32611;SDS011;19030;49.478;8.986;2023-08-08T04:09:45;5.53;;;3.53;;
32611;SDS011;19030;49.478;8.986;2023-08-08T04:11:46;9.57;;;4.07;;
32611;SDS011;19030;49.478;8.986;2023-08-08T04:13:46;6.30;;;3.90;;
32611;SDS011;19030;49.478;8.986;2023-08-08T04:15:47;8.77;;;4.35;;
32611;SDS011;19030;49.478;8.986;2023-08-08T04:17:48;8.07;;;4.20;;
32611;SDS011;19030;49.478;8.986;2023-08-08T04:19:48;6.32;;;4.10;;
32611;SDS011;19030;49.478;8.986;2023-08-08T04:21:49;7.45;;;3.90;;
32611;SDS011;19030;49.478;8.986;2023-08-08T04:23:49;5.45;;;3.70;;
32611;SDS011;19030;49.478;8.986;2023-08-08T04:25:50;9.05;;;4.28;;
32611;SDS011;19030;49.478;8.986;2023-08-08T04:27:51;7.22;;;4.55;;
32611;SDS011;19030;49.478;8.986;2023-08-08T04:29:51;9.85;;;4.43;;
32611;SDS011;19030;49.478;8.986;2023-08-08T04:31:52;5.10;;;3.80;;
32611;SDS011;19030;49.478;8.986;2023-08-08T04:33:52;6.65;;;4.45;;
32611;SDS011;19030;49.478;8.986;2023-08-08T04:36:00;7.03;;;4.30;;
32611;SDS011;19030;49.478;8.986;2023-08-08T04:38:00;6.20;;;4.30;;
32611;SDS011;19030;49.478;8.986;2023-08-08T04:40:01;6.07;;;4.30;;
32611;SDS011;19030;49.478;8.986;2023-08-08T04:42:02;8.52;;;4.45;;
32611;SDS011;19030;49.478;8.986;2023-08-08T04:44:03;5.47;;;3.80;;
32611;SDS011;19030;49.478;8.986;2023-08-08T04:46:04;7.45;;;3.95;;
32611;SDS011;19030;49.478;8.986;2023-08-08T04:48:04;5.32;;;3.60;;
32611;SDS011;19030;49.478;8.986;2023-08-08T04:50:05;5.40;;;3.78;;
32611;SDS011;19030;49.478;8.986;2023-08-08T04:52:06;5.78;;;3.65;;
32611;SDS011;19030;49.478;8.986;2023-08-08T04:54:07;7.13;;;4.10;;
32611;SDS011;19030;49.478;8.986;2023-08-08T04:56:07;6.47;;;3.90;;
32611;SDS011;19030;49.478;8.986;2023-08-08T04:58:08;5.90;;;3.80;;
32611;SDS011;19030;49.478;8.986;2023-08-08T05:00:08;6.45;;;4.07;;
32611;SDS011;19030;49.478;8.986;2023-08-08T05:02:09;5.32;;;3.72;;
32611;SDS011;19030;49.478;8.986;2023-08-08T05:04:10;4.00;;;3.25;;
32611;SDS011;19030;49.478;8.986;2023-08-08T05:06:10;6.45;;;4.00;;
32611;SDS011;19030;49.478;8.986;2023-08-08T05:08:11;5.13;;;3.10;;
32611;SDS011;19030;49.478;8.986;2023-08-08T05:10:15;9.07;;;3.50;;
32611;SDS011;19030;49.478;8.986;2023-08-08T05:12:15;7.18;;;3.60;;
32611;SDS011;19030;49.478;8.986;2023-08-08T05:14:16;4.93;;;3.38;;
32611;SDS011;19030;49.478;8.986;2023-08-08T05:16:17;5.25;;;3.60;;
32611;SDS011;19030;49.478;8.986;2023-08-08T05:18:18;5.15;;;3.75;;
32611;SDS011;19030;49.478;8.986;2023-08-08T05:20:19;4.72;;;3.33;;
32611;SDS011;19030;49.478;8.986;2023-08-08T05:22:19;5.05;;;3.45;;
32611;SDS011;19030;49.478;8.986;2023-08-08T05:24:20;4.30;;;3.50;;
32611;SDS011;19030;49.478;8.986;2023-08-08T05:26:20;5.35;;;3.70;;
32611;SDS011;19030;49.478;8.986;2023-08-08T05:28:21;5.30;;;3.78;;
32611;SDS011;19030;49.478;8.986;2023-08-08T05:30:22;4.60;;;3.38;;
32611;SDS011;19030;49.478;8.986;2023-08-08T05:32:22;7.63;;;3.88;;
32611;SDS011;19030;49.478;8.986;2023-08-08T05:34:23;5.32;;;3.90;;
32611;SDS011;19030;49.478;8.986;2023-08-08T05:36:24;6.78;;;3.85;;
32611;SDS011;19030;49.478;8.986;2023-08-08T05:38:25;4.82;;;3.75;;
32611;SDS011;19030;49.478;8.986;2023-08-08T05:40:25;4.80;;;3.20;;
32611;SDS011;19030;49.478;8.986;2023-08-08T05:42:26;4.63;;;3.25;;
32611;SDS011;19030;49.478;8.986;2023-08-08T05:44:27;4.28;;;3.25;;
32611;SDS011;19030;49.478;8.986;2023-08-08T05:46:27;3.63;;;3.10;;
32611;SDS011;19030;49.478;8.986;2023-08-08T05:48:28;5.50;;;3.58;;
32611;SDS011;19030;49.478;8.986;2023-08-08T05:50:28;5.95;;;3.97;;
32611;SDS011;19030;49.478;8.986;2023-08-08T05:52:29;4.80;;;3.72;;
32611;SDS011;19030;49.478;8.986;2023-08-08T05:54:29;4.75;;;3.30;;
32611;SDS011;19030;49.478;8.986;2023-08-08T05:56:36;4.55;;;3.40;;
32611;SDS011;19030;49.478;8.986;2023-08-08T05:58:37;7.55;;;3.70;;
32611;SDS011;19030;49.478;8.986;2023-08-08T06:00:38;5.65;;;3.55;;
32611;SDS011;19030;49.478;8.986;2023-08-08T06:02:39;6.68;;;3.60;;
32611;SDS011;19030;49.478;8.986;2023-08-08T06:04:40;4.47;;;3.47;;
32611;SDS011;19030;49.478;8.986;2023-08-08T06:06:40;5.38;;;3.35;;
32611;SDS011;19030;49.478;8.986;2023-08-08T06:08:41;4.68;;;3.80;;
32611;SDS011;19030;49.478;8.986;2023-08-08T06:10:42;6.05;;;4.38;;
32611;SDS011;19030;49.478;8.986;2023-08-08T06:12:42;7.03;;;3.92;;
32611;SDS011;19030;49.478;8.986;2023-08-08T06:14:43;5.28;;;4.10;;
32611;SDS011;19030;49.478;8.986;2023-08-08T06:16:43;5.85;;;4.70;;
32611;SDS011;19030;49.478;8.986;2023-08-08T06:18:44;6.35;;;4.43;;
32611;SDS011;19030;49.478;8.986;2023-08-08T06:20:45;6.10;;;4.60;;
32611;SDS011;19030;49.478;8.986;2023-08-08T06:22:45;5.95;;;4.80;;
32611;SDS011;19030;49.478;8.986;2023-08-08T06:24:46;6.22;;;4.30;;
32611;SDS011;19030;49.478;8.986;2023-08-08T06:26:47;6.35;;;4.53;;
32611;SDS011;19030;49.478;8.986;2023-08-08T06:28:47;6.72;;;5.20;;
32611;SDS011;19030;49.478;8.986;2023-08-08T06:30:48;6.72;;;4.95;;
32611;SDS011;19030;49.478;8.986;2023-08-08T06:32:48;6.53;;;4.82;;
32611;SDS011;19030;49.478;8.986;2023-08-08T06:34:49;6.65;;;5.05;;
32611;SDS011;19030;49.478;8.986;2023-08-08T06:36:49;6.60;;;5.03;;
32611;SDS011;19030;49.478;8.986;2023-08-08T06:38:50;6.45;;;4.25;;
32611;SDS011;19030;49.478;8.986;2023-08-08T06:40:51;7.38;;;4.45;;
32611;SDS011;19030;49.478;8.986;2023-08-08T06:42:52;6.38;;;4.30;;
32611;SDS011;19030;49.478;8.986;2023-08-08T06:44:52;6.88;;;4.88;;
32611;SDS011;19030;49.478;8.986;2023-08-08T06:46:53;6.07;;;4.82;;
32611;SDS011;19030;49.478;8.986;2023-08-08T06:48:53;6.40;;;4.90;;
32611;SDS011;19030;49.478;8.986;2023-08-08T06:50:57;7.22;;;5.78;;
32611;SDS011;19030;49.478;8.986;2023-08-08T06:52:57;13.82;;;12.60;;
32611;SDS011;19030;49.478;8.986;2023-08-08T06:54:58;7.38;;;6.57;;
32611;SDS011;19030;49.478;8.986;2023-08-08T06:56:58;9.50;;;8.00;;
32611;SDS011;19030;49.478;8.986;2023-08-08T06:58:59;8.70;;;7.90;;
32611;SDS011;19030;49.478;8.986;2023-08-08T07:00:59;9.25;;;6.20;;
32611;SDS011;19030;49.478;8.986;2023-08-08T07:03:00;10.10;;;7.07;;
32611;SDS011;19030;49.478;8.986;2023-08-08T07:05:00;6.85;;;5.80;;
32611;SDS011;19030;49.478;8.986;2023-08-08T07:07:01;6.90;;;6.18;;
32611;SDS011;19030;49.478;8.986;2023-08-08T07:09:01;14.93;;;13.63;;
32611;SDS011;19030;49.478;8.986;2023-08-08T07:11:02;7.65;;;5.93;;
32611;SDS011;19030;49.478;8.986;2023-08-08T07:13:03;7.85;;;6.55;;
32611;SDS011;19030;49.478;8.986;2023-08-08T07:15:06;7.75;;;5.85;;
32611;SDS011;19030;49.478;8.986;2023-08-08T07:17:07;9.30;;;6.35;;
32611;SDS011;19030;49.478;8.986;2023-08-08T07:19:08;6.95;;;6.25;;
32611;SDS011;19030;49.478;8.986;2023-08-08T07:21:08;7.03;;;6.00;;
32611;SDS011;19030;49.478;8.986;2023-08-08T07:23:09;7.40;;;6.47;;
32611;SDS011;19030;49.478;8.986;2023-08-08T07:25:10;8.88;;;6.80;;
32611;SDS011;19030;49.478;8.986;2023-08-08T07:27:11;8.50;;;7.30;;
32611;SDS011;19030;49.478;8.986;2023-08-08T07:29:11;7.10;;;6.28;;
32611;SDS011;19030;49.478;8.986;2023-08-08T07:31:12;7.35;;;6.45;;
32611;SDS011;19030;49.478;8.986;2023-08-08T07:33:13;8.52;;;6.40;;
32611;SDS011;19030;49.478;8.986;2023-08-08T07:35:13;7.10;;;6.40;;
32611;SDS011;19030;49.478;8.986;2023-08-08T07:37:15;8.18;;;6.00;;
32611;SDS011;19030;49.478;8.986;2023-08-08T07:39:15;7.32;;;5.55;;
32611;SDS011;19030;49.478;8.986;2023-08-08T07:41:16;7.30;;;5.97;;
32611;SDS011;19030;49.478;8.986;2023-08-08T07:43:18;7.40;;;6.18;;
32611;SDS011;19030;49.478;8.986;2023-08-08T07:45:20;8.05;;;5.90;;
32611;SDS011;19030;49.478;8.986;2023-08-08T07:47:21;7.03;;;5.70;;
32611;SDS011;19030;49.478;8.986;2023-08-08T07:49:21;9.38;;;6.03;;
32611;SDS011;19030;49.478;8.986;2023-08-08T07:51:22;7.20;;;5.80;;
32611;SDS011;19030;49.478;8.986;2023-08-08T07:53:23;7.05;;;5.22;;
32611;SDS011;19030;49.478;8.986;2023-08-08T07:55:23;8.43;;;5.45;;
32611;SDS011;19030;49.478;8.986;2023-08-08T07:57:26;7.80;;;5.30;;
32611;SDS011;19030;49.478;8.986;2023-08-08T07:59:27;8.80;;;5.60;;
32611;SDS011;19030;49.478;8.986;2023-08-08T08:01:28;10.55;;;5.88;;
32611;SDS011;19030;49.478;8.986;2023-08-08T08:03:29;8.27;;;5.22;;
32611;SDS011;19030;49.478;8.986;2023-08-08T08:05:29;10.23;;;5.38;;
32611;SDS011;19030;49.478;8.986;2023-08-08T08:07:30;7.80;;;5.25;;
32611;SDS011;19030;49.478;8.986;2023-08-08T08:09:32;7.97;;;5.32;;
32611;SDS011;19030;49.478;8.986;2023-08-08T08:11:32;11.88;;;10.88;;
32611;SDS011;19030;49.478;8.986;2023-08-08T08:13:33;12.82;;;11.27;;
32611;SDS011;19030;49.478;8.986;2023-08-08T08:15:34;13.32;;;12.02;;
32611;SDS011;19030;49.478;8.986;2023-08-08T08:17:34;12.85;;;11.82;;
32611;SDS011;19030;49.478;8.986;2023-08-08T08:19:35;5.72;;;4.25;;
32611;SDS011;19030;49.478;8.986;2023-08-08T08:21:36;9.25;;;4.85;;
32611;SDS011;19030;49.478;8.986;2023-08-08T08:23:37;12.40;;;11.20;;
32611;SDS011;19030;49.478;8.986;2023-08-08T08:25:37;6.70;;;5.00;;
32611;SDS011;19030;49.478;8.986;2023-08-08T08:27:38;6.72;;;4.78;;
32611;SDS011;19030;49.478;8.986;2023-08-08T08:29:39;6.38;;;4.60;;
32611;SDS011;19030;49.478;8.986;2023-08-08T08:31:39;6.35;;;4.40;;
32611;SDS011;19030;49.478;8.986;2023-08-08T08:33:40;6.65;;;4.80;;
32611;SDS011;19030;49.478;8.986;2023-08-08T08:35:40;7.60;;;4.40;;
32611;SDS011;19030;49.478;8.986;2023-08-08T08:37:41;6.40;;;4.70;;
32611;SDS011;19030;49.478;8.986;2023-08-08T08:39:42;6.15;;;5.00;;
32611;SDS011;19030;49.478;8.986;2023-08-08T08:41:42;7.07;;;5.53;;
32611;SDS011;19030;49.478;8.986;2023-08-08T08:43:48;6.57;;;4.45;;
32611;SDS011;19030;49.478;8.986;2023-08-08T08:45:50;7.82;;;6.22;;
32611;SDS011;19030;49.478;8.986;2023-08-08T08:47:53;5.63;;;4.35;;
32611;SDS011;19030;49.478;8.986;2023-08-08T08:49:57;7.10;;;4.43;;
32611;SDS011;19030;49.478;8.986;2023-08-08T08:51:58;7.43;;;3.92;;
32611;SDS011;19030;49.478;8.986;2023-08-08T08:54:05;6.68;;;4.18;;
32611;SDS011;19030;49.478;8.986;2023-08-08T08:56:06;7.15;;;6.20;;
32611;SDS011;19030;49.478;8.986;2023-08-08T08:58:07;11.57;;;10.55;;
32611;SDS011;19030;49.478;8.986;2023-08-08T09:00:08;12.95;;;11.68;;
32611;SDS011;19030;49.478;8.986;2023-08-08T09:02:09;12.93;;;11.77;;
32611;SDS011;19030;49.478;8.986;2023-08-08T09:04:11;13.77;;;12.57;;
32611;SDS011;19030;49.478;8.986;2023-08-08T09:06:15;11.95;;;10.95;;
32611;SDS011;19030;49.478;8.986;2023-08-08T09:08:17;12.77;;;11.68;;
32611;SDS011;19030;49.478;8.986;2023-08-08T09:10:18;10.07;;;9.07;;
32611;SDS011;19030;49.478;8.986;2023-08-08T09:12:19;10.00;;;8.93;;
32611;SDS011;19030;49.478;8.986;2023-08-08T09:14:21;12.77;;;11.48;;
32611;SDS011;19030;49.478;8.986;2023-08-08T09:16:23;12.00;;;10.98;;
32611;SDS011;19030;49.478;8.986;2023-08-08T09:18:23;11.70;;;10.70;;
32611;SDS011;19030;49.478;8.986;2023-08-08T09:20:25;14.27;;;13.05;;
32611;SDS011;19030;49.478;8.986;2023-08-08T09:22:28;12.27;;;11.17;;
32611;SDS011;19030;49.478;8.986;2023-08-08T09:24:28;12.05;;;11.00;;
32611;SDS011;19030;49.478;8.986;2023-08-08T09:26:29;12.10;;;10.73;;
32611;SDS011;19030;49.478;8.986;2023-08-08T09:28:30;11.90;;;10.80;;
32611;SDS011;19030;49.478;8.986;2023-08-08T09:30:30;11.02;;;10.02;;
32611;SDS011;19030;49.478;8.986;2023-08-08T09:32:31;13.70;;;12.45;;
32611;SDS011;19030;49.478;8.986;2023-08-08T09:34:32;12.43;;;11.23;;
32611;SDS011;19030;49.478;8.986;2023-08-08T09:36:33;11.77;;;10.65;;
32611;SDS011;19030;49.478;8.986;2023-08-08T09:38:35;11.88;;;10.85;;
32611;SDS011;19030;49.478;8.986;2023-08-08T09:40:35;12.52;;;11.23;;
32611;SDS011;19030;49.478;8.986;2023-08-08T09:42:36;12.30;;;11.27;;
32611;SDS011;19030;49.478;8.986;2023-08-08T09:44:37;12.88;;;11.60;;
32611;SDS011;19030;49.478;8.986;2023-08-08T09:46:39;12.65;;;11.48;;
32611;SDS011;19030;49.478;8.986;2023-08-08T09:48:40;11.90;;;10.80;;
32611;SDS011;19030;49.478;8.986;2023-08-08T09:50:41;6.88;;;4.75;;
32611;SDS011;19030;49.478;8.986;2023-08-08T09:52:42;5.93;;;4.60;;
32611;SDS011;19030;49.478;8.986;2023-08-08T09:54:43;6.93;;;4.65;;
32611;SDS011;19030;49.478;8.986;2023-08-08T09:56:45;9.40;;;4.88;;
32611;SDS011;19030;49.478;8.986;2023-08-08T09:58:46;5.88;;;4.43;;
32611;SDS011;19030;49.478;8.986;2023-08-08T10:00:49;6.15;;;4.45;;
32611;SDS011;19030;49.478;8.986;2023-08-08T10:02:50;12.27;;;11.15;;
32611;SDS011;19030;49.478;8.986;2023-08-08T10:04:50;10.50;;;9.50;;
32611;SDS011;19030;49.478;8.986;2023-08-08T10:06:52;7.07;;;5.20;;
32611;SDS011;19030;49.478;8.986;2023-08-08T10:08:53;6.78;;;4.88;;
32611;SDS011;19030;49.478;8.986;2023-08-08T10:10:54;8.73;;;4.50;;
32611;SDS011;19030;49.478;8.986;2023-08-08T10:12:56;4.82;;;4.32;;
32611;SDS011;19030;49.478;8.986;2023-08-08T10:14:57;7.30;;;5.15;;
32611;SDS011;19030;49.478;8.986;2023-08-08T10:16:58;7.32;;;4.38;;
32611;SDS011;19030;49.478;8.986;2023-08-08T10:18:59;5.68;;;4.82;;
32611;SDS011;19030;49.478;8.986;2023-08-08T10:21:03;5.68;;;4.60;;
32611;SDS011;19030;49.478;8.986;2023-08-08T10:23:04;6.60;;;4.43;;
32611;SDS011;19030;49.478;8.986;2023-08-08T10:25:07;5.93;;;4.40;;
32611;SDS011;19030;49.478;8.986;2023-08-08T10:27:08;9.13;;;4.90;;
32611;SDS011;19030;49.478;8.986;2023-08-08T10:29:17;5.85;;;4.93;;
32611;SDS011;19030;49.478;8.986;2023-08-08T10:31:21;5.82;;;4.40;;
32611;SDS011;19030;49.478;8.986;2023-08-08T10:33:23;5.43;;;4.55;;
32611;SDS011;19030;49.478;8.986;2023-08-08T10:35:34;7.05;;;4.57;;
32611;SDS011;19030;49.478;8.986;2023-08-08T10:37:37;5.70;;;4.60;;
32611;SDS011;19030;49.478;8.986;2023-08-08T10:39:50;7.57;;;4.20;;
32611;SDS011;19030;49.478;8.986;2023-08-08T10:41:52;7.10;;;4.95;;
32611;SDS011;19030;49.478;8.986;2023-08-08T10:43:53;5.78;;;4.50;;
32611;SDS011;19030;49.478;8.986;2023-08-08T10:45:57;8.23;;;4.53;;
32611;SDS011;19030;49.478;8.986;2023-08-08T10:48:06;9.25;;;4.68;;
32611;SDS011;19030;49.478;8.986;2023-08-08T10:50:10;6.55;;;4.50;;
32611;SDS011;19030;49.478;8.986;2023-08-08T10:54:25;6.55;;;4.20;;
32611;SDS011;19030;49.478;8.986;2023-08-08T10:56:30;6.50;;;4.30;;
32611;SDS011;19030;49.478;8.986;2023-08-08T10:58:38;6.57;;;4.57;;
32611;SDS011;19030;49.478;8.986;2023-08-08T11:00:40;6.68;;;4.10;;
32611;SDS011;19030;49.478;8.986;2023-08-08T11:02:42;11.07;;;4.45;;
32611;SDS011;19030;49.478;8.986;2023-08-08T11:04:44;5.25;;;4.10;;
32611;SDS011;19030;49.478;8.986;2023-08-08T11:06:45;5.93;;;4.20;;
32611;SDS011;19030;49.478;8.986;2023-08-08T11:08:47;4.95;;;3.92;;
32611;SDS011;19030;49.478;8.986;2023-08-08T11:10:50;7.75;;;3.88;;
32611;SDS011;19030;49.478;8.986;2023-08-08T11:12:56;4.85;;;3.78;;
32611;SDS011;19030;49.478;8.986;2023-08-08T11:15:01;7.85;;;4.10;;
32611;SDS011;19030;49.478;8.986;2023-08-08T11:17:02;6.03;;;4.13;;
32611;SDS011;19030;49.478;8.986;2023-08-08T11:19:03;6.00;;;4.00;;
32611;SDS011;19030;49.478;8.986;2023-08-08T11:21:09;6.65;;;4.25;;
32611;SDS011;19030;49.478;8.986;2023-08-08T11:23:11;7.03;;;4.05;;
32611;SDS011;19030;49.478;8.986;2023-08-08T11:25:14;4.85;;;4.00;;
32611;SDS011;19030;49.478;8.986;2023-08-08T11:27:15;6.97;;;4.25;;
32611;SDS011;19030;49.478;8.986;2023-08-08T11:29:15;6.05;;;3.85;;
32611;SDS011;19030;49.478;8.986;2023-08-08T11:31:17;5.75;;;3.80;;
32611;SDS011;19030;49.478;8.986;2023-08-08T11:33:19;6.85;;;3.65;;
32611;SDS011;19030;49.478;8.986;2023-08-08T11:35:23;5.97;;;4.20;;
32611;SDS011;19030;49.478;8.986;2023-08-08T11:37:24;5.13;;;3.90;;
32611;SDS011;19030;49.478;8.986;2023-08-08T11:39:25;6.50;;;3.88;;
32611;SDS011;19030;49.478;8.986;2023-08-08T11:41:26;7.63;;;4.03;;
32611;SDS011;19030;49.478;8.986;2023-08-08T11:43:27;6.50;;;4.13;;
32611;SDS011;19030;49.478;8.986;2023-08-08T11:45:28;5.25;;;3.67;;
32611;SDS011;19030;49.478;8.986;2023-08-08T11:47:28;6.18;;;3.92;;
32611;SDS011;19030;49.478;8.986;2023-08-08T11:49:38;6.55;;;4.00;;
32611;SDS011;19030;49.478;8.986;2023-08-08T11:51:40;6.43;;;4.25;;
32611;SDS011;19030;49.478;8.986;2023-08-08T11:53:50;7.95;;;4.03;;
32611;SDS011;19030;49.478;8.986;2023-08-08T11:55:51;5.00;;;3.67;;
32611;SDS011;19030;49.478;8.986;2023-08-08T11:57:54;5.88;;;3.88;;
32611;SDS011;19030;49.478;8.986;2023-08-08T11:59:57;6.45;;;4.20;;
32611;SDS011;19030;49.478;8.986;2023-08-08T12:01:58;4.70;;;3.83;;
32611;SDS011;19030;49.478;8.986;2023-08-08T12:04:04;9.15;;;4.25;;
32611;SDS011;19030;49.478;8.986;2023-08-08T12:06:13;6.45;;;3.80;;
32611;SDS011;19030;49.478;8.986;2023-08-08T12:08:21;6.28;;;3.65;;
32611;SDS011;19030;49.478;8.986;2023-08-08T12:10:23;6.97;;;3.80;;
32611;SDS011;19030;49.478;8.986;2023-08-08T12:12:25;6.00;;;3.80;;
32611;SDS011;19030;49.478;8.986;2023-08-08T12:14:27;4.88;;;3.80;;